Cades, South Carolina
Current Conditions -  °F | °C
As of 6:53 PM on Monday 22 Dec 2014 (Local Time) from KFLO Reporting Station
Haze Haze  
Wind Chill: 37°   Ceiling: 200
Heat Index: 43°   Visibility: 1.5mi
Dew Point: 41°   Wind: 10mph
Humidity: 93%   Direction: 30°NNE
Pressure: 30.03"   Gusts: NA
Location:  33.79°N, 79.78°W
Report Text: KFLO 222353Z 03009KT 1 1/2SM BR OVC002 06/05 A3003 RMK AO2 SLP168 60005 T00610050 10067 20061 53007
Loading
Personal Weather Stations






























Interactive Weather Map New forecast layout! Learn more

10-Day Weather Forecast

Advertisements
Track Severe Weather on mobile